sensor_id;sensor_type;location;lat;lon;timestamp;P1;durP1;ratioP1;P2;durP2;ratioP2
41512;SDS011;27244;59.940;30.280;2022-09-12T00:01:14;29.77;;;23.65;;
41512;SDS011;27244;59.940;30.280;2022-09-12T00:03:45;25.08;;;22.05;;
41512;SDS011;27244;59.940;30.280;2022-09-12T00:06:14;27.25;;;22.33;;
41512;SDS011;27244;59.940;30.280;2022-09-12T00:08:43;25.55;;;22.02;;
41512;SDS011;27244;59.940;30.280;2022-09-12T00:11:11;28.27;;;22.60;;
41512;SDS011;27244;59.940;30.280;2022-09-12T00:13:39;28.25;;;23.02;;
41512;SDS011;27244;59.940;30.280;2022-09-12T00:16:15;29.55;;;22.73;;
41512;SDS011;27244;59.940;30.280;2022-09-12T00:18:44;27.83;;;21.92;;
41512;SDS011;27244;59.940;30.280;2022-09-12T00:21:12;26.73;;;21.92;;
41512;SDS011;27244;59.940;30.280;2022-09-12T00:23:39;25.88;;;20.67;;
41512;SDS011;27244;59.940;30.280;2022-09-12T00:26:06;24.60;;;20.88;;
41512;SDS011;27244;59.940;30.280;2022-09-12T00:28:34;27.50;;;21.88;;
41512;SDS011;27244;59.940;30.280;2022-09-12T00:31:03;26.85;;;21.70;;
41512;SDS011;27244;59.940;30.280;2022-09-12T00:33:31;26.60;;;20.77;;
41512;SDS011;27244;59.940;30.280;2022-09-12T00:36:02;24.80;;;20.33;;
41512;SDS011;27244;59.940;30.280;2022-09-12T00:38:30;23.25;;;20.13;;
41512;SDS011;27244;59.940;30.280;2022-09-12T00:40:57;24.77;;;20.95;;
41512;SDS011;27244;59.940;30.280;2022-09-12T00:43:35;24.25;;;20.52;;
41512;SDS011;27244;59.940;30.280;2022-09-12T00:46:05;24.98;;;20.35;;
41512;SDS011;27244;59.940;30.280;2022-09-12T00:48:40;24.98;;;20.83;;
41512;SDS011;27244;59.940;30.280;2022-09-12T00:51:10;23.20;;;19.63;;
41512;SDS011;27244;59.940;30.280;2022-09-12T00:53:39;23.30;;;19.40;;
41512;SDS011;27244;59.940;30.280;2022-09-12T00:56:09;24.02;;;18.17;;
41512;SDS011;27244;59.940;30.280;2022-09-12T00:58:39;24.90;;;19.75;;
41512;SDS011;27244;59.940;30.280;2022-09-12T01:01:12;23.20;;;18.33;;
41512;SDS011;27244;59.940;30.280;2022-09-12T01:03:39;21.17;;;18.13;;
41512;SDS011;27244;59.940;30.280;2022-09-12T01:06:08;21.10;;;18.60;;
41512;SDS011;27244;59.940;30.280;2022-09-12T01:08:41;21.25;;;17.73;;
41512;SDS011;27244;59.940;30.280;2022-09-12T01:11:09;22.20;;;17.20;;
41512;SDS011;27244;59.940;30.280;2022-09-12T01:13:37;21.55;;;18.08;;
41512;SDS011;27244;59.940;30.280;2022-09-12T01:16:05;23.55;;;17.58;;
41512;SDS011;27244;59.940;30.280;2022-09-12T01:18:36;22.60;;;16.88;;
41512;SDS011;27244;59.940;30.280;2022-09-12T01:21:19;21.45;;;17.52;;
41512;SDS011;27244;59.940;30.280;2022-09-12T01:27:18;20.52;;;17.00;;
41512;SDS011;27244;59.940;30.280;2022-09-12T01:30:19;20.73;;;16.33;;
41512;SDS011;27244;59.940;30.280;2022-09-12T01:35:52;21.85;;;15.95;;
41512;SDS011;27244;59.940;30.280;2022-09-12T01:38:31;23.08;;;15.40;;
41512;SDS011;27244;59.940;30.280;2022-09-12T01:43:50;19.02;;;15.15;;
41512;SDS011;27244;59.940;30.280;2022-09-12T01:46:29;18.67;;;14.32;;
41512;SDS011;27244;59.940;30.280;2022-09-12T01:49:01;17.70;;;13.65;;
41512;SDS011;27244;59.940;30.280;2022-09-12T01:51:37;17.60;;;13.00;;
41512;SDS011;27244;59.940;30.280;2022-09-12T01:54:09;17.77;;;13.02;;
41512;SDS011;27244;59.940;30.280;2022-09-12T01:56:41;16.73;;;12.75;;
41512;SDS011;27244;59.940;30.280;2022-09-12T01:59:15;15.00;;;11.63;;
41512;SDS011;27244;59.940;30.280;2022-09-12T02:01:49;14.85;;;11.20;;
41512;SDS011;27244;59.940;30.280;2022-09-12T02:04:22;14.82;;;11.18;;
41512;SDS011;27244;59.940;30.280;2022-09-12T02:06:55;14.10;;;11.32;;
41512;SDS011;27244;59.940;30.280;2022-09-12T02:09:27;12.82;;;10.55;;
41512;SDS011;27244;59.940;30.280;2022-09-12T02:12:00;11.93;;;10.00;;
41512;SDS011;27244;59.940;30.280;2022-09-12T02:14:31;20.77;;;13.13;;
41512;SDS011;27244;59.940;30.280;2022-09-12T02:17:05;20.67;;;11.98;;
41512;SDS011;27244;59.940;30.280;2022-09-12T02:19:35;18.92;;;10.55;;
41512;SDS011;27244;59.940;30.280;2022-09-12T02:22:08;11.02;;;8.20;;
41512;SDS011;27244;59.940;30.280;2022-09-12T02:24:41;11.55;;;7.60;;
41512;SDS011;27244;59.940;30.280;2022-09-12T02:27:13;12.93;;;8.60;;
41512;SDS011;27244;59.940;30.280;2022-09-12T02:29:42;11.90;;;8.80;;
41512;SDS011;27244;59.940;30.280;2022-09-12T02:32:14;15.95;;;9.60;;
41512;SDS011;27244;59.940;30.280;2022-09-12T02:34:52;12.15;;;9.77;;
41512;SDS011;27244;59.940;30.280;2022-09-12T02:37:28;14.48;;;8.82;;
41512;SDS011;27244;59.940;30.280;2022-09-12T02:40:08;9.52;;;7.60;;
41512;SDS011;27244;59.940;30.280;2022-09-12T02:42:35;10.40;;;8.30;;
41512;SDS011;27244;59.940;30.280;2022-09-12T02:45:03;8.40;;;6.88;;
41512;SDS011;27244;59.940;30.280;2022-09-12T02:47:33;9.90;;;7.30;;
41512;SDS011;27244;59.940;30.280;2022-09-12T02:50:04;10.20;;;7.38;;
41512;SDS011;27244;59.940;30.280;2022-09-12T02:52:32;9.30;;;6.53;;
41512;SDS011;27244;59.940;30.280;2022-09-12T02:55:00;9.85;;;7.22;;
41512;SDS011;27244;59.940;30.280;2022-09-12T02:57:30;8.50;;;6.85;;
41512;SDS011;27244;59.940;30.280;2022-09-12T02:59:57;8.48;;;6.63;;
41512;SDS011;27244;59.940;30.280;2022-09-12T03:02:34;11.00;;;7.63;;
41512;SDS011;27244;59.940;30.280;2022-09-12T03:05:23;12.57;;;7.53;;
41512;SDS011;27244;59.940;30.280;2022-09-12T03:08:05;11.52;;;7.30;;
41512;SDS011;27244;59.940;30.280;2022-09-12T03:13:52;11.75;;;7.40;;
41512;SDS011;27244;59.940;30.280;2022-09-12T03:16:32;11.35;;;7.53;;
41512;SDS011;27244;59.940;30.280;2022-09-12T03:19:08;11.40;;;8.50;;
41512;SDS011;27244;59.940;30.280;2022-09-12T03:21:45;10.90;;;8.13;;
41512;SDS011;27244;59.940;30.280;2022-09-12T03:24:23;10.75;;;8.18;;
41512;SDS011;27244;59.940;30.280;2022-09-12T03:26:57;11.20;;;7.97;;
41512;SDS011;27244;59.940;30.280;2022-09-12T03:29:28;10.35;;;9.25;;
41512;SDS011;27244;59.940;30.280;2022-09-12T03:31:57;13.82;;;9.65;;
41512;SDS011;27244;59.940;30.280;2022-09-12T03:34:26;12.85;;;8.70;;
41512;SDS011;27244;59.940;30.280;2022-09-12T03:36:53;11.05;;;9.18;;
41512;SDS011;27244;59.940;30.280;2022-09-12T03:39:21;14.63;;;11.07;;
41512;SDS011;27244;59.940;30.280;2022-09-12T03:41:50;14.30;;;10.75;;
41512;SDS011;27244;59.940;30.280;2022-09-12T03:44:17;14.45;;;10.98;;
41512;SDS011;27244;59.940;30.280;2022-09-12T03:46:45;12.40;;;10.65;;
41512;SDS011;27244;59.940;30.280;2022-09-12T03:49:12;13.35;;;11.27;;
41512;SDS011;27244;59.940;30.280;2022-09-12T03:51:41;12.95;;;11.40;;
41512;SDS011;27244;59.940;30.280;2022-09-12T03:54:08;14.98;;;11.85;;
41512;SDS011;27244;59.940;30.280;2022-09-12T03:56:36;14.05;;;12.13;;
41512;SDS011;27244;59.940;30.280;2022-09-12T03:59:04;13.63;;;12.15;;
41512;SDS011;27244;59.940;30.280;2022-09-12T04:01:32;14.23;;;12.73;;
41512;SDS011;27244;59.940;30.280;2022-09-12T04:03:59;14.15;;;12.60;;
41512;SDS011;27244;59.940;30.280;2022-09-12T04:06:26;15.65;;;13.25;;
41512;SDS011;27244;59.940;30.280;2022-09-12T04:08:55;14.35;;;12.18;;
41512;SDS011;27244;59.940;30.280;2022-09-12T04:11:22;17.55;;;13.65;;
41512;SDS011;27244;59.940;30.280;2022-09-12T04:13:49;16.90;;;13.85;;
41512;SDS011;27244;59.940;30.280;2022-09-12T04:16:17;16.02;;;14.18;;
41512;SDS011;27244;59.940;30.280;2022-09-12T04:18:44;16.20;;;14.40;;
41512;SDS011;27244;59.940;30.280;2022-09-12T04:21:12;16.45;;;14.15;;
41512;SDS011;27244;59.940;30.280;2022-09-12T04:23:41;17.13;;;14.93;;
41512;SDS011;27244;59.940;30.280;2022-09-12T04:26:10;16.73;;;14.88;;
41512;SDS011;27244;59.940;30.280;2022-09-12T04:28:39;16.48;;;14.77;;
41512;SDS011;27244;59.940;30.280;2022-09-12T04:31:07;17.35;;;15.52;;
41512;SDS011;27244;59.940;30.280;2022-09-12T04:33:36;16.95;;;15.25;;
41512;SDS011;27244;59.940;30.280;2022-09-12T04:36:04;17.63;;;15.82;;
41512;SDS011;27244;59.940;30.280;2022-09-12T04:38:32;18.67;;;16.70;;
41512;SDS011;27244;59.940;30.280;2022-09-12T04:41:08;18.13;;;16.23;;
41512;SDS011;27244;59.940;30.280;2022-09-12T04:43:37;17.63;;;15.73;;
41512;SDS011;27244;59.940;30.280;2022-09-12T04:46:04;18.85;;;16.90;;
41512;SDS011;27244;59.940;30.280;2022-09-12T04:48:31;18.48;;;16.63;;
41512;SDS011;27244;59.940;30.280;2022-09-12T04:51:05;17.88;;;16.08;;
41512;SDS011;27244;59.940;30.280;2022-09-12T04:53:32;19.30;;;17.30;;
41512;SDS011;27244;59.940;30.280;2022-09-12T04:56:02;17.88;;;16.13;;
41512;SDS011;27244;59.940;30.280;2022-09-12T04:58:31;19.13;;;17.17;;
41512;SDS011;27244;59.940;30.280;2022-09-12T05:01:02;19.40;;;16.77;;
41512;SDS011;27244;59.940;30.280;2022-09-12T05:03:30;20.15;;;18.05;;
41512;SDS011;27244;59.940;30.280;2022-09-12T05:05:57;19.85;;;17.80;;
41512;SDS011;27244;59.940;30.280;2022-09-12T05:08:24;20.98;;;18.60;;
41512;SDS011;27244;59.940;30.280;2022-09-12T05:10:51;20.13;;;17.90;;
41512;SDS011;27244;59.940;30.280;2022-09-12T05:13:18;20.65;;;18.55;;
41512;SDS011;27244;59.940;30.280;2022-09-12T05:15:54;19.55;;;17.55;;
41512;SDS011;27244;59.940;30.280;2022-09-12T05:18:21;21.73;;;19.42;;
41512;SDS011;27244;59.940;30.280;2022-09-12T05:20:48;20.50;;;18.40;;
41512;SDS011;27244;59.940;30.280;2022-09-12T05:23:15;20.02;;;17.92;;
41512;SDS011;27244;59.940;30.280;2022-09-12T05:25:47;20.40;;;18.27;;
41512;SDS011;27244;59.940;30.280;2022-09-12T05:28:14;20.58;;;18.55;;
41512;SDS011;27244;59.940;30.280;2022-09-12T05:30:42;20.45;;;18.35;;
41512;SDS011;27244;59.940;30.280;2022-09-12T05:33:10;18.92;;;16.92;;
41512;SDS011;27244;59.940;30.280;2022-09-12T05:35:37;18.25;;;16.35;;
41512;SDS011;27244;59.940;30.280;2022-09-12T05:38:04;16.88;;;14.55;;
41512;SDS011;27244;59.940;30.280;2022-09-12T05:40:32;22.67;;;15.85;;
41512;SDS011;27244;59.940;30.280;2022-09-12T05:43:00;18.98;;;16.85;;
41512;SDS011;27244;59.940;30.280;2022-09-12T05:45:26;18.30;;;16.10;;
41512;SDS011;27244;59.940;30.280;2022-09-12T05:47:54;18.27;;;16.40;;
41512;SDS011;27244;59.940;30.280;2022-09-12T05:50:23;20.02;;;17.23;;
41512;SDS011;27244;59.940;30.280;2022-09-12T05:52:50;19.15;;;17.10;;
41512;SDS011;27244;59.940;30.280;2022-09-12T05:55:17;18.85;;;17.00;;
41512;SDS011;27244;59.940;30.280;2022-09-12T05:57:44;19.20;;;17.20;;
41512;SDS011;27244;59.940;30.280;2022-09-12T06:00:11;19.70;;;17.70;;
41512;SDS011;27244;59.940;30.280;2022-09-12T06:02:40;19.42;;;17.33;;
41512;SDS011;27244;59.940;30.280;2022-09-12T06:05:07;19.52;;;17.52;;
41512;SDS011;27244;59.940;30.280;2022-09-12T06:07:36;20.15;;;16.83;;
41512;SDS011;27244;59.940;30.280;2022-09-12T06:10:03;18.33;;;16.50;;
41512;SDS011;27244;59.940;30.280;2022-09-12T06:12:30;19.15;;;16.65;;
41512;SDS011;27244;59.940;30.280;2022-09-12T06:14:57;18.48;;;16.58;;
41512;SDS011;27244;59.940;30.280;2022-09-12T06:17:24;19.00;;;16.92;;
41512;SDS011;27244;59.940;30.280;2022-09-12T06:19:51;19.25;;;16.67;;
41512;SDS011;27244;59.940;30.280;2022-09-12T06:22:18;19.20;;;17.23;;
41512;SDS011;27244;59.940;30.280;2022-09-12T06:24:46;19.55;;;17.52;;
41512;SDS011;27244;59.940;30.280;2022-09-12T06:27:13;19.10;;;17.10;;
41512;SDS011;27244;59.940;30.280;2022-09-12T06:29:40;19.75;;;17.75;;
41512;SDS011;27244;59.940;30.280;2022-09-12T06:32:07;19.00;;;17.05;;
41512;SDS011;27244;59.940;30.280;2022-09-12T06:34:35;20.13;;;18.00;;
41512;SDS011;27244;59.940;30.280;2022-09-12T06:37:02;20.13;;;18.02;;
41512;SDS011;27244;59.940;30.280;2022-09-12T06:39:29;19.48;;;17.27;;
41512;SDS011;27244;59.940;30.280;2022-09-12T06:41:58;18.48;;;16.50;;
41512;SDS011;27244;59.940;30.280;2022-09-12T06:44:32;20.17;;;18.08;;
41512;SDS011;27244;59.940;30.280;2022-09-12T06:46:59;19.17;;;17.25;;
41512;SDS011;27244;59.940;30.280;2022-09-12T06:49:26;18.73;;;16.83;;
41512;SDS011;27244;59.940;30.280;2022-09-12T06:51:53;19.00;;;17.10;;
41512;SDS011;27244;59.940;30.280;2022-09-12T06:54:20;18.20;;;16.27;;
41512;SDS011;27244;59.940;30.280;2022-09-12T06:56:47;19.40;;;17.40;;
41512;SDS011;27244;59.940;30.280;2022-09-12T06:59:16;21.40;;;19.08;;
41512;SDS011;27244;59.940;30.280;2022-09-12T07:01:43;24.08;;;19.85;;
41512;SDS011;27244;59.940;30.280;2022-09-12T07:04:10;27.85;;;21.75;;
41512;SDS011;27244;59.940;30.280;2022-09-12T07:06:37;26.40;;;22.05;;
41512;SDS011;27244;59.940;30.280;2022-09-12T07:09:06;25.20;;;20.90;;
41512;SDS011;27244;59.940;30.280;2022-09-12T07:11:36;28.73;;;23.08;;
41512;SDS011;27244;59.940;30.280;2022-09-12T07:14:04;28.83;;;22.67;;
41512;SDS011;27244;59.940;30.280;2022-09-12T07:16:34;30.33;;;23.73;;
41512;SDS011;27244;59.940;30.280;2022-09-12T07:19:03;34.03;;;22.85;;
41512;SDS011;27244;59.940;30.280;2022-09-12T07:21:31;28.13;;;21.08;;
41512;SDS011;27244;59.940;30.280;2022-09-12T07:24:00;29.38;;;21.65;;
41512;SDS011;27244;59.940;30.280;2022-09-12T07:26:28;32.25;;;24.35;;
41512;SDS011;27244;59.940;30.280;2022-09-12T07:28:56;39.08;;;25.05;;
41512;SDS011;27244;59.940;30.280;2022-09-12T07:31:24;42.35;;;23.63;;
41512;SDS011;27244;59.940;30.280;2022-09-12T07:33:54;30.50;;;21.75;;
41512;SDS011;27244;59.940;30.280;2022-09-12T07:36:22;37.20;;;22.60;;
41512;SDS011;27244;59.940;30.280;2022-09-12T07:38:53;32.08;;;22.83;;
41512;SDS011;27244;59.940;30.280;2022-09-12T07:41:22;29.48;;;21.90;;
41512;SDS011;27244;59.940;30.280;2022-09-12T07:43:52;32.75;;;21.95;;
41512;SDS011;27244;59.940;30.280;2022-09-12T07:46:20;31.95;;;22.58;;
41512;SDS011;27244;59.940;30.280;2022-09-12T07:48:51;27.70;;;20.35;;
41512;SDS011;27244;59.940;30.280;2022-09-12T07:51:20;30.05;;;20.58;;
41512;SDS011;27244;59.940;30.280;2022-09-12T07:53:48;30.08;;;22.67;;
41512;SDS011;27244;59.940;30.280;2022-09-12T07:56:16;38.47;;;22.90;;
41512;SDS011;27244;59.940;30.280;2022-09-12T07:58:44;33.60;;;22.20;;
41512;SDS011;27244;59.940;30.280;2022-09-12T08:01:11;31.58;;;20.55;;
41512;SDS011;27244;59.940;30.280;2022-09-12T08:03:40;32.30;;;21.45;;
41512;SDS011;27244;59.940;30.280;2022-09-12T08:06:08;30.52;;;21.38;;
41512;SDS011;27244;59.940;30.280;2022-09-12T08:08:39;29.35;;;21.10;;
41512;SDS011;27244;59.940;30.280;2022-09-12T08:11:08;29.60;;;21.17;;
41512;SDS011;27244;59.940;30.280;2022-09-12T08:13:36;31.02;;;21.27;;
41512;SDS011;27244;59.940;30.280;2022-09-12T08:16:05;30.67;;;20.70;;
41512;SDS011;27244;59.940;30.280;2022-09-12T08:18:34;30.27;;;20.42;;
41512;SDS011;27244;59.940;30.280;2022-09-12T08:21:02;29.52;;;20.73;;
41512;SDS011;27244;59.940;30.280;2022-09-12T08:23:30;28.35;;;19.80;;
41512;SDS011;27244;59.940;30.280;2022-09-12T08:25:59;27.48;;;19.85;;
41512;SDS011;27244;59.940;30.280;2022-09-12T08:28:29;32.88;;;21.10;;
41512;SDS011;27244;59.940;30.280;2022-09-12T08:30:59;27.98;;;20.17;;
41512;SDS011;27244;59.940;30.280;2022-09-12T08:33:27;30.27;;;20.15;;
41512;SDS011;27244;59.940;30.280;2022-09-12T08:36:01;26.90;;;19.02;;
41512;SDS011;27244;59.940;30.280;2022-09-12T08:38:30;28.45;;;19.60;;
41512;SDS011;27244;59.940;30.280;2022-09-12T08:41:00;28.17;;;19.40;;
41512;SDS011;27244;59.940;30.280;2022-09-12T08:43:37;26.92;;;20.30;;
41512;SDS011;27244;59.940;30.280;2022-09-12T08:46:17;27.55;;;18.77;;
41512;SDS011;27244;59.940;30.280;2022-09-12T08:48:48;24.77;;;18.15;;
41512;SDS011;27244;59.940;30.280;2022-09-12T08:51:15;30.60;;;19.05;;
41512;SDS011;27244;59.940;30.280;2022-09-12T08:53:45;24.67;;;18.35;;
41512;SDS011;27244;59.940;30.280;2022-09-12T08:56:16;25.33;;;18.13;;
41512;SDS011;27244;59.940;30.280;2022-09-12T08:58:43;25.90;;;18.40;;
41512;SDS011;27244;59.940;30.280;2022-09-12T09:01:13;25.70;;;18.40;;
41512;SDS011;27244;59.940;30.280;2022-09-12T09:04:03;25.98;;;17.55;;
41512;SDS011;27244;59.940;30.280;2022-09-12T09:09:43;26.55;;;19.70;;
41512;SDS011;27244;59.940;30.280;2022-09-12T09:12:25;23.70;;;18.38;;
41512;SDS011;27244;59.940;30.280;2022-09-12T09:15:13;25.02;;;17.25;;
41512;SDS011;27244;59.940;30.280;2022-09-12T09:17:59;22.17;;;16.98;;
41512;SDS011;27244;59.940;30.280;2022-09-12T09:20:31;22.42;;;16.83;;
41512;SDS011;27244;59.940;30.280;2022-09-12T09:23:05;23.65;;;16.98;;
41512;SDS011;27244;59.940;30.280;2022-09-12T09:25:41;20.90;;;16.70;;
41512;SDS011;27244;59.940;30.280;2022-09-12T09:28:19;23.40;;;16.38;;
41512;SDS011;27244;59.940;30.280;2022-09-12T09:30:50;21.88;;;15.73;;
41512;SDS011;27244;59.940;30.280;2022-09-12T09:33:20;23.35;;;16.27;;
41512;SDS011;27244;59.940;30.280;2022-09-12T09:35:51;21.60;;;16.20;;
41512;SDS011;27244;59.940;30.280;2022-09-12T09:38:26;21.30;;;15.77;;
41512;SDS011;27244;59.940;30.280;2022-09-12T09:41:06;21.13;;;15.68;;
41512;SDS011;27244;59.940;30.280;2022-09-12T09:43:47;23.15;;;16.10;;
41512;SDS011;27244;59.940;30.280;2022-09-12T09:46:14;19.60;;;16.02;;
41512;SDS011;27244;59.940;30.280;2022-09-12T09:48:42;19.65;;;15.60;;
41512;SDS011;27244;59.940;30.280;2022-09-12T09:51:12;20.55;;;15.68;;
41512;SDS011;27244;59.940;30.280;2022-09-12T09:53:44;24.35;;;16.45;;
41512;SDS011;27244;59.940;30.280;2022-09-12T09:56:18;22.73;;;15.40;;
41512;SDS011;27244;59.940;30.280;2022-09-12T09:58:54;17.98;;;15.40;;
41512;SDS011;27244;59.940;30.280;2022-09-12T10:01:21;20.17;;;14.48;;
41512;SDS011;27244;59.940;30.280;2022-09-12T10:03:49;17.38;;;14.68;;
41512;SDS011;27244;59.940;30.280;2022-09-12T10:06:24;18.42;;;15.10;;
41512;SDS011;27244;59.940;30.280;2022-09-12T10:09:03;18.58;;;14.40;;
41512;SDS011;27244;59.940;30.280;2022-09-12T10:11:44;20.00;;;14.85;;
41512;SDS011;27244;59.940;30.280;2022-09-12T10:14:29;18.05;;;14.23;;
41512;SDS011;27244;59.940;30.280;2022-09-12T10:17:01;18.15;;;14.02;;
41512;SDS011;27244;59.940;30.280;2022-09-12T10:19:33;20.70;;;13.80;;
41512;SDS011;27244;59.940;30.280;2022-09-12T10:22:01;19.88;;;13.60;;
41512;SDS011;27244;59.940;30.280;2022-09-12T10:24:31;19.27;;;14.30;;
41512;SDS011;27244;59.940;30.280;2022-09-12T10:29:41;17.80;;;13.32;;
41512;SDS011;27244;59.940;30.280;2022-09-12T10:32:12;17.67;;;13.93;;
41512;SDS011;27244;59.940;30.280;2022-09-12T10:34:45;16.33;;;12.88;;
41512;SDS011;27244;59.940;30.280;2022-09-12T10:37:16;16.13;;;12.52;;
41512;SDS011;27244;59.940;30.280;2022-09-12T10:39:49;17.25;;;13.32;;
41512;SDS011;27244;59.940;30.280;2022-09-12T10:45:19;15.75;;;12.07;;
41512;SDS011;27244;59.940;30.280;2022-09-12T10:47:48;17.98;;;13.32;;
41512;SDS011;27244;59.940;30.280;2022-09-12T10:50:18;16.95;;;13.15;;
41512;SDS011;27244;59.940;30.280;2022-09-12T10:52:47;15.20;;;12.50;;
41512;SDS011;27244;59.940;30.280;2022-09-12T10:55:14;16.33;;;13.05;;
41512;SDS011;27244;59.940;30.280;2022-09-12T10:57:57;14.93;;;12.27;;
41512;SDS011;27244;59.940;30.280;2022-09-12T11:00:34;18.27;;;12.93;;
41512;SDS011;27244;59.940;30.280;2022-09-12T11:03:13;16.30;;;12.73;;
41512;SDS011;27244;59.940;30.280;2022-09-12T11:08:41;16.27;;;12.68;;
41512;SDS011;27244;59.940;30.280;2022-09-12T11:11:24;16.50;;;12.32;;
41512;SDS011;27244;59.940;30.280;2022-09-12T11:17:01;18.05;;;13.07;;
41512;SDS011;27244;59.940;30.280;2022-09-12T11:19:48;15.23;;;12.35;;
41512;SDS011;27244;59.940;30.280;2022-09-12T11:22:32;15.13;;;12.18;;
41512;SDS011;27244;59.940;30.280;2022-09-12T11:25:16;16.67;;;12.40;;
41512;SDS011;27244;59.940;30.280;2022-09-12T11:27:58;15.63;;;11.95;;
41512;SDS011;27244;59.940;30.280;2022-09-12T11:30:42;15.05;;;12.23;;
41512;SDS011;27244;59.940;30.280;2022-09-12T11:33:28;15.65;;;11.20;;
41512;SDS011;27244;59.940;30.280;2022-09-12T11:36:04;16.42;;;12.82;;
41512;SDS011;27244;59.940;30.280;2022-09-12T11:38:40;15.63;;;12.45;;
41512;SDS011;27244;59.940;30.280;2022-09-12T11:41:19;15.43;;;12.20;;
41512;SDS011;27244;59.940;30.280;2022-09-12T11:43:54;15.05;;;11.93;;
41512;SDS011;27244;59.940;30.280;2022-09-12T11:46:29;16.52;;;12.55;;
41512;SDS011;27244;59.940;30.280;2022-09-12T11:49:03;16.40;;;11.35;;
41512;SDS011;27244;59.940;30.280;2022-09-12T11:51:40;16.45;;;13.10;;
41512;SDS011;27244;59.940;30.280;2022-09-12T11:54:17;16.55;;;12.15;;
41512;SDS011;27244;59.940;30.280;2022-09-12T11:56:49;14.75;;;11.98;;
41512;SDS011;27244;59.940;30.280;2022-09-12T11:59:28;16.45;;;12.55;;
41512;SDS011;27244;59.940;30.280;2022-09-12T12:01:58;16.13;;;11.88;;
41512;SDS011;27244;59.940;30.280;2022-09-12T12:04:28;16.40;;;12.73;;
41512;SDS011;27244;59.940;30.280;2022-09-12T12:07:03;15.43;;;12.15;;
41512;SDS011;27244;59.940;30.280;2022-09-12T12:09:33;15.57;;;12.18;;
41512;SDS011;27244;59.940;30.280;2022-09-12T12:12:00;15.05;;;12.15;;
41512;SDS011;27244;59.940;30.280;2022-09-12T12:14:35;16.50;;;11.93;;
41512;SDS011;27244;59.940;30.280;2022-09-12T12:17:12;16.05;;;12.63;;
41512;SDS011;27244;59.940;30.280;2022-09-12T12:19:42;14.27;;;11.85;;
41512;SDS011;27244;59.940;30.280;2022-09-12T12:22:14;15.57;;;11.95;;
41512;SDS011;27244;59.940;30.280;2022-09-12T12:27:23;15.75;;;12.00;;
41512;SDS011;27244;59.940;30.280;2022-09-12T12:36:30;15.20;;;12.15;;
41512;SDS011;27244;59.940;30.280;2022-09-12T12:48:43;15.93;;;11.95;;
41512;SDS011;27244;59.940;30.280;2022-09-12T12:51:22;15.88;;;12.35;;
41512;SDS011;27244;59.940;30.280;2022-09-12T12:56:25;15.73;;;12.00;;
41512;SDS011;27244;59.940;30.280;2022-09-12T12:59:00;15.27;;;11.98;;
41512;SDS011;27244;59.940;30.280;2022-09-12T13:01:30;16.63;;;12.37;;
41512;SDS011;27244;59.940;30.280;2022-09-12T13:04:04;15.80;;;12.55;;
41512;SDS011;27244;59.940;30.280;2022-09-12T13:06:41;16.75;;;11.82;;
41512;SDS011;27244;59.940;30.280;2022-09-12T13:09:18;14.52;;;11.65;;
41512;SDS011;27244;59.940;30.280;2022-09-12T13:11:54;15.43;;;11.73;;
41512;SDS011;27244;59.940;30.280;2022-09-12T13:14:33;15.65;;;12.68;;
41512;SDS011;27244;59.940;30.280;2022-09-12T13:17:03;13.98;;;11.15;;
41512;SDS011;27244;59.940;30.280;2022-09-12T13:19:35;15.23;;;11.68;;
41512;SDS011;27244;59.940;30.280;2022-09-12T13:22:03;14.30;;;11.55;;
41512;SDS011;27244;59.940;30.280;2022-09-12T13:24:33;17.50;;;12.18;;
41512;SDS011;27244;59.940;30.280;2022-09-12T13:27:15;15.88;;;11.40;;
41512;SDS011;27244;59.940;30.280;2022-09-12T13:29:43;15.13;;;11.98;;
41512;SDS011;27244;59.940;30.280;2022-09-12T13:32:10;13.85;;;11.70;;
41512;SDS011;27244;59.940;30.280;2022-09-12T13:34:40;14.85;;;11.57;;
41512;SDS011;27244;59.940;30.280;2022-09-12T13:37:27;15.70;;;12.15;;
41512;SDS011;27244;59.940;30.280;2022-09-12T13:40:17;14.90;;;12.07;;
41512;SDS011;27244;59.940;30.280;2022-09-12T13:43:04;16.52;;;11.80;;
41512;SDS011;27244;59.940;30.280;2022-09-12T13:45:35;15.30;;;11.27;;
41512;SDS011;27244;59.940;30.280;2022-09-12T13:48:04;13.65;;;11.18;;
41512;SDS011;27244;59.940;30.280;2022-09-12T13:50:38;14.77;;;11.35;;
41512;SDS011;27244;59.940;30.280;2022-09-12T13:53:12;14.50;;;11.65;;
41512;SDS011;27244;59.940;30.280;2022-09-12T13:55:44;14.52;;;10.73;;
41512;SDS011;27244;59.940;30.280;2022-09-12T13:58:18;12.70;;;10.40;;
41512;SDS011;27244;59.940;30.280;2022-09-12T14:00:58;13.48;;;11.02;;
41512;SDS011;27244;59.940;30.280;2022-09-12T14:03:27;13.63;;;10.43;;
41512;SDS011;27244;59.940;30.280;2022-09-12T14:06:13;13.27;;;11.30;;
41512;SDS011;27244;59.940;30.280;2022-09-12T14:08:43;14.25;;;10.85;;
41512;SDS011;27244;59.940;30.280;2022-09-12T14:11:17;14.15;;;10.57;;
41512;SDS011;27244;59.940;30.280;2022-09-12T14:13:50;15.25;;;10.63;;
41512;SDS011;27244;59.940;30.280;2022-09-12T14:16:17;14.80;;;10.95;;
41512;SDS011;27244;59.940;30.280;2022-09-12T14:18:47;14.65;;;10.77;;
41512;SDS011;27244;59.940;30.280;2022-09-12T14:21:19;13.77;;;10.80;;
41512;SDS011;27244;59.940;30.280;2022-09-12T14:23:58;13.25;;;10.40;;
41512;SDS011;27244;59.940;30.280;2022-09-12T14:26:27;12.38;;;10.60;;
41512;SDS011;27244;59.940;30.280;2022-09-12T14:28:57;13.55;;;9.93;;
41512;SDS011;27244;59.940;30.280;2022-09-12T14:31:28;13.65;;;10.68;;
41512;SDS011;27244;59.940;30.280;2022-09-12T14:34:06;13.05;;;10.63;;
41512;SDS011;27244;59.940;30.280;2022-09-12T14:36:36;13.15;;;10.68;;
41512;SDS011;27244;59.940;30.280;2022-09-12T14:42:00;12.52;;;10.77;;
41512;SDS011;27244;59.940;30.280;2022-09-12T14:44:31;13.68;;;10.85;;
41512;SDS011;27244;59.940;30.280;2022-09-12T14:47:00;14.60;;;11.15;;
41512;SDS011;27244;59.940;30.280;2022-09-12T14:49:38;14.50;;;10.57;;
41512;SDS011;27244;59.940;30.280;2022-09-12T14:52:05;13.35;;;10.35;;
41512;SDS011;27244;59.940;30.280;2022-09-12T14:54:53;12.95;;;10.13;;
41512;SDS011;27244;59.940;30.280;2022-09-12T14:57:34;13.43;;;10.48;;
41512;SDS011;27244;59.940;30.280;2022-09-12T15:00:04;14.85;;;11.30;;
41512;SDS011;27244;59.940;30.280;2022-09-12T15:02:51;13.52;;;10.70;;
41512;SDS011;27244;59.940;30.280;2022-09-12T15:05:23;12.40;;;9.95;;
41512;SDS011;27244;59.940;30.280;2022-09-12T15:07:53;11.57;;;9.27;;
41512;SDS011;27244;59.940;30.280;2022-09-12T15:10:23;13.82;;;10.70;;
41512;SDS011;27244;59.940;30.280;2022-09-12T15:15:41;13.40;;;9.88;;
41512;SDS011;27244;59.940;30.280;2022-09-12T15:18:10;12.75;;;9.70;;
41512;SDS011;27244;59.940;30.280;2022-09-12T15:20:38;13.38;;;10.38;;
41512;SDS011;27244;59.940;30.280;2022-09-12T15:23:09;12.55;;;10.50;;
41512;SDS011;27244;59.940;30.280;2022-09-12T15:25:41;12.93;;;9.88;;
41512;SDS011;27244;59.940;30.280;2022-09-12T15:28:14;12.75;;;10.05;;
41512;SDS011;27244;59.940;30.280;2022-09-12T15:30:43;12.48;;;9.50;;